sensor_id;sensor_type;location;lat;lon;timestamp;P1;durP1;ratioP1;P2;durP2;ratioP2
49372;SDS011;44113;38.408;-122.974;2022-08-07T00:02:03;3.58;;;0.38;;
49372;SDS011;44113;38.408;-122.974;2022-08-07T00:04:31;2.97;;;0.25;;
49372;SDS011;44113;38.408;-122.974;2022-08-07T00:06:57;3.08;;;0.43;;
49372;SDS011;44113;38.408;-122.974;2022-08-07T00:09:24;1.75;;;0.20;;
49372;SDS011;44113;38.408;-122.974;2022-08-07T00:11:50;6.00;;;0.85;;
49372;SDS011;44113;38.408;-122.974;2022-08-07T00:14:17;7.13;;;0.75;;
49372;SDS011;44113;38.408;-122.974;2022-08-07T00:16:44;5.65;;;0.50;;
49372;SDS011;44113;38.408;-122.974;2022-08-07T00:19:10;2.53;;;0.50;;
49372;SDS011;44113;38.408;-122.974;2022-08-07T00:21:37;7.55;;;0.88;;
49372;SDS011;44113;38.408;-122.974;2022-08-07T00:24:03;14.75;;;1.13;;
49372;SDS011;44113;38.408;-122.974;2022-08-07T00:26:30;6.03;;;0.52;;
49372;SDS011;44113;38.408;-122.974;2022-08-07T00:28:57;5.22;;;0.57;;
49372;SDS011;44113;38.408;-122.974;2022-08-07T00:31:23;7.43;;;1.25;;
49372;SDS011;44113;38.408;-122.974;2022-08-07T00:33:50;4.70;;;0.45;;
49372;SDS011;44113;38.408;-122.974;2022-08-07T00:36:16;6.63;;;0.30;;
49372;SDS011;44113;38.408;-122.974;2022-08-07T00:38:43;1.67;;;0.60;;
49372;SDS011;44113;38.408;-122.974;2022-08-07T00:41:09;2.28;;;0.30;;
49372;SDS011;44113;38.408;-122.974;2022-08-07T00:43:36;7.07;;;0.40;;
49372;SDS011;44113;38.408;-122.974;2022-08-07T00:46:02;1.33;;;0.30;;
49372;SDS011;44113;38.408;-122.974;2022-08-07T00:48:29;1.95;;;0.30;;
49372;SDS011;44113;38.408;-122.974;2022-08-07T00:50:57;1.30;;;0.20;;
49372;SDS011;44113;38.408;-122.974;2022-08-07T00:53:24;6.07;;;0.35;;
49372;SDS011;44113;38.408;-122.974;2022-08-07T00:55:50;2.15;;;0.50;;
49372;SDS011;44113;38.408;-122.974;2022-08-07T00:58:17;1.50;;;0.30;;
49372;SDS011;44113;38.408;-122.974;2022-08-07T01:00:45;2.55;;;0.43;;
49372;SDS011;44113;38.408;-122.974;2022-08-07T01:03:11;3.03;;;0.50;;
49372;SDS011;44113;38.408;-122.974;2022-08-07T01:05:38;2.72;;;0.95;;
49372;SDS011;44113;38.408;-122.974;2022-08-07T01:08:06;2.78;;;0.30;;
49372;SDS011;44113;38.408;-122.974;2022-08-07T01:10:33;2.53;;;0.30;;
49372;SDS011;44113;38.408;-122.974;2022-08-07T01:12:59;1.48;;;0.30;;
49372;SDS011;44113;38.408;-122.974;2022-08-07T01:15:27;2.90;;;0.52;;
49372;SDS011;44113;38.408;-122.974;2022-08-07T01:17:56;3.78;;;0.30;;
49372;SDS011;44113;38.408;-122.974;2022-08-07T01:20:25;2.53;;;0.22;;
49372;SDS011;44113;38.408;-122.974;2022-08-07T01:22:59;1.58;;;0.38;;
49372;SDS011;44113;38.408;-122.974;2022-08-07T01:25:27;0.88;;;0.30;;
49372;SDS011;44113;38.408;-122.974;2022-08-07T01:27:54;1.52;;;0.30;;
49372;SDS011;44113;38.408;-122.974;2022-08-07T01:30:21;2.70;;;0.55;;
49372;SDS011;44113;38.408;-122.974;2022-08-07T01:32:50;4.35;;;0.40;;
49372;SDS011;44113;38.408;-122.974;2022-08-07T01:35:16;1.40;;;0.30;;
49372;SDS011;44113;38.408;-122.974;2022-08-07T01:37:43;3.17;;;0.45;;
49372;SDS011;44113;38.408;-122.974;2022-08-07T01:40:10;8.48;;;0.47;;
49372;SDS011;44113;38.408;-122.974;2022-08-07T01:42:39;1.50;;;0.38;;
49372;SDS011;44113;38.408;-122.974;2022-08-07T01:45:05;2.15;;;0.75;;
49372;SDS011;44113;38.408;-122.974;2022-08-07T01:47:32;2.90;;;0.30;;
49372;SDS011;44113;38.408;-122.974;2022-08-07T01:49:59;2.10;;;0.28;;
49372;SDS011;44113;38.408;-122.974;2022-08-07T01:52:25;4.35;;;0.30;;
49372;SDS011;44113;38.408;-122.974;2022-08-07T01:54:55;3.10;;;0.90;;
49372;SDS011;44113;38.408;-122.974;2022-08-07T01:57:25;2.20;;;0.30;;
49372;SDS011;44113;38.408;-122.974;2022-08-07T01:59:55;1.55;;;0.20;;
49372;SDS011;44113;38.408;-122.974;2022-08-07T02:02:37;0.82;;;0.20;;
49372;SDS011;44113;38.408;-122.974;2022-08-07T02:05:17;0.75;;;0.20;;
49372;SDS011;44113;38.408;-122.974;2022-08-07T02:07:51;2.47;;;0.95;;
49372;SDS011;44113;38.408;-122.974;2022-08-07T02:10:21;2.75;;;0.30;;
49372;SDS011;44113;38.408;-122.974;2022-08-07T02:12:50;0.95;;;0.30;;
49372;SDS011;44113;38.408;-122.974;2022-08-07T02:15:22;3.75;;;0.47;;
49372;SDS011;44113;38.408;-122.974;2022-08-07T02:17:51;2.33;;;0.20;;
49372;SDS011;44113;38.408;-122.974;2022-08-07T02:20:18;3.15;;;0.40;;
49372;SDS011;44113;38.408;-122.974;2022-08-07T02:22:47;2.17;;;0.30;;
49372;SDS011;44113;38.408;-122.974;2022-08-07T02:25:17;1.52;;;0.30;;
49372;SDS011;44113;38.408;-122.974;2022-08-07T02:27:44;1.70;;;0.30;;
49372;SDS011;44113;38.408;-122.974;2022-08-07T02:30:13;4.45;;;0.40;;
49372;SDS011;44113;38.408;-122.974;2022-08-07T02:32:41;2.58;;;0.82;;
49372;SDS011;44113;38.408;-122.974;2022-08-07T02:35:08;1.55;;;0.30;;
49372;SDS011;44113;38.408;-122.974;2022-08-07T02:37:36;1.48;;;0.30;;
49372;SDS011;44113;38.408;-122.974;2022-08-07T02:40:06;5.78;;;0.82;;
49372;SDS011;44113;38.408;-122.974;2022-08-07T02:42:33;3.05;;;0.40;;
49372;SDS011;44113;38.408;-122.974;2022-08-07T02:45:02;6.03;;;0.45;;
49372;SDS011;44113;38.408;-122.974;2022-08-07T02:47:30;3.45;;;0.45;;
49372;SDS011;44113;38.408;-122.974;2022-08-07T02:49:57;5.38;;;0.40;;
49372;SDS011;44113;38.408;-122.974;2022-08-07T02:52:25;3.78;;;0.22;;
49372;SDS011;44113;38.408;-122.974;2022-08-07T02:54:59;2.20;;;0.50;;
49372;SDS011;44113;38.408;-122.974;2022-08-07T02:57:29;4.75;;;0.30;;
49372;SDS011;44113;38.408;-122.974;2022-08-07T03:00:02;5.53;;;0.73;;
49372;SDS011;44113;38.408;-122.974;2022-08-07T03:02:29;2.65;;;0.28;;
49372;SDS011;44113;38.408;-122.974;2022-08-07T03:04:58;5.35;;;0.55;;
49372;SDS011;44113;38.408;-122.974;2022-08-07T03:07:26;1.65;;;0.40;;
49372;SDS011;44113;38.408;-122.974;2022-08-07T03:09:53;5.07;;;0.73;;
49372;SDS011;44113;38.408;-122.974;2022-08-07T03:12:20;2.38;;;0.30;;
49372;SDS011;44113;38.408;-122.974;2022-08-07T03:14:47;4.80;;;0.50;;
49372;SDS011;44113;38.408;-122.974;2022-08-07T03:17:15;4.72;;;0.80;;
49372;SDS011;44113;38.408;-122.974;2022-08-07T03:19:42;7.47;;;3.60;;
49372;SDS011;44113;38.408;-122.974;2022-08-07T03:22:08;16.45;;;6.10;;
49372;SDS011;44113;38.408;-122.974;2022-08-07T03:24:35;19.60;;;9.10;;
49372;SDS011;44113;38.408;-122.974;2022-08-07T03:27:02;18.33;;;12.80;;
49372;SDS011;44113;38.408;-122.974;2022-08-07T03:29:37;25.27;;;14.90;;
49372;SDS011;44113;38.408;-122.974;2022-08-07T03:32:09;35.70;;;26.55;;
49372;SDS011;44113;38.408;-122.974;2022-08-07T03:34:37;28.73;;;17.58;;
49372;SDS011;44113;38.408;-122.974;2022-08-07T03:37:05;32.40;;;21.70;;
49372;SDS011;44113;38.408;-122.974;2022-08-07T03:39:34;31.60;;;23.08;;
49372;SDS011;44113;38.408;-122.974;2022-08-07T03:42:04;35.25;;;22.33;;
49372;SDS011;44113;38.408;-122.974;2022-08-07T03:44:35;32.13;;;22.20;;
49372;SDS011;44113;38.408;-122.974;2022-08-07T03:47:03;22.90;;;20.40;;
49372;SDS011;44113;38.408;-122.974;2022-08-07T03:49:31;28.67;;;19.30;;
49372;SDS011;44113;38.408;-122.974;2022-08-07T03:51:59;24.48;;;20.13;;
49372;SDS011;44113;38.408;-122.974;2022-08-07T03:54:26;23.77;;;19.00;;
49372;SDS011;44113;38.408;-122.974;2022-08-07T03:56:53;30.25;;;18.30;;
49372;SDS011;44113;38.408;-122.974;2022-08-07T03:59:21;25.55;;;16.45;;
49372;SDS011;44113;38.408;-122.974;2022-08-07T04:01:50;23.25;;;18.10;;
49372;SDS011;44113;38.408;-122.974;2022-08-07T04:04:20;18.30;;;16.05;;
49372;SDS011;44113;38.408;-122.974;2022-08-07T04:06:47;18.75;;;15.20;;
49372;SDS011;44113;38.408;-122.974;2022-08-07T04:09:14;19.10;;;15.18;;
49372;SDS011;44113;38.408;-122.974;2022-08-07T04:11:41;18.85;;;14.23;;
49372;SDS011;44113;38.408;-122.974;2022-08-07T04:14:10;19.63;;;13.77;;
49372;SDS011;44113;38.408;-122.974;2022-08-07T04:16:37;19.85;;;13.50;;
49372;SDS011;44113;38.408;-122.974;2022-08-07T04:19:04;17.90;;;14.55;;
49372;SDS011;44113;38.408;-122.974;2022-08-07T04:21:32;19.15;;;13.63;;
49372;SDS011;44113;38.408;-122.974;2022-08-07T04:24:00;14.90;;;12.15;;
49372;SDS011;44113;38.408;-122.974;2022-08-07T04:26:27;16.15;;;11.73;;
49372;SDS011;44113;38.408;-122.974;2022-08-07T04:28:53;18.25;;;11.77;;
49372;SDS011;44113;38.408;-122.974;2022-08-07T04:31:22;15.75;;;11.45;;
49372;SDS011;44113;38.408;-122.974;2022-08-07T04:33:49;18.08;;;11.82;;
49372;SDS011;44113;38.408;-122.974;2022-08-07T04:36:16;9.90;;;8.90;;
49372;SDS011;44113;38.408;-122.974;2022-08-07T04:38:42;17.85;;;10.55;;
49372;SDS011;44113;38.408;-122.974;2022-08-07T04:41:09;15.27;;;10.52;;
49372;SDS011;44113;38.408;-122.974;2022-08-07T04:43:36;10.07;;;9.05;;
49372;SDS011;44113;38.408;-122.974;2022-08-07T04:46:26;17.05;;;10.85;;
49372;SDS011;44113;38.408;-122.974;2022-08-07T04:57:36;11.80;;;7.93;;
49372;SDS011;44113;38.408;-122.974;2022-08-07T05:00:23;15.25;;;9.88;;
49372;SDS011;44113;38.408;-122.974;2022-08-07T05:03:13;11.95;;;7.95;;
49372;SDS011;44113;38.408;-122.974;2022-08-07T05:08:44;13.07;;;7.85;;
49372;SDS011;44113;38.408;-122.974;2022-08-07T05:11:20;8.85;;;7.15;;
49372;SDS011;44113;38.408;-122.974;2022-08-07T05:14:16;8.73;;;7.07;;
49372;SDS011;44113;38.408;-122.974;2022-08-07T05:16:44;8.18;;;6.38;;
49372;SDS011;44113;38.408;-122.974;2022-08-07T05:19:16;7.95;;;6.15;;
49372;SDS011;44113;38.408;-122.974;2022-08-07T05:21:49;8.15;;;7.05;;
49372;SDS011;44113;38.408;-122.974;2022-08-07T05:24:20;8.65;;;7.22;;
49372;SDS011;44113;38.408;-122.974;2022-08-07T05:26:48;8.60;;;7.25;;
49372;SDS011;44113;38.408;-122.974;2022-08-07T05:29:19;8.75;;;7.82;;
49372;SDS011;44113;38.408;-122.974;2022-08-07T05:31:47;11.57;;;7.30;;
49372;SDS011;44113;38.408;-122.974;2022-08-07T05:34:15;8.63;;;7.60;;
49372;SDS011;44113;38.408;-122.974;2022-08-07T05:36:45;7.97;;;6.43;;
49372;SDS011;44113;38.408;-122.974;2022-08-07T05:39:19;7.45;;;6.68;;
49372;SDS011;44113;38.408;-122.974;2022-08-07T05:41:47;13.93;;;6.43;;
49372;SDS011;44113;38.408;-122.974;2022-08-07T05:44:16;10.55;;;6.32;;
49372;SDS011;44113;38.408;-122.974;2022-08-07T05:46:47;9.10;;;5.38;;
49372;SDS011;44113;38.408;-122.974;2022-08-07T05:49:15;9.02;;;5.35;;
49372;SDS011;44113;38.408;-122.974;2022-08-07T05:51:43;6.00;;;5.45;;
49372;SDS011;44113;38.408;-122.974;2022-08-07T05:54:11;8.65;;;7.05;;
49372;SDS011;44113;38.408;-122.974;2022-08-07T05:56:38;11.02;;;6.28;;
49372;SDS011;44113;38.408;-122.974;2022-08-07T05:59:07;6.45;;;5.85;;
49372;SDS011;44113;38.408;-122.974;2022-08-07T06:01:39;8.50;;;6.57;;
49372;SDS011;44113;38.408;-122.974;2022-08-07T06:04:07;6.78;;;5.18;;
49372;SDS011;44113;38.408;-122.974;2022-08-07T06:06:34;9.77;;;4.15;;
49372;SDS011;44113;38.408;-122.974;2022-08-07T06:09:02;6.43;;;5.70;;
49372;SDS011;44113;38.408;-122.974;2022-08-07T06:11:29;8.88;;;6.40;;
49372;SDS011;44113;38.408;-122.974;2022-08-07T06:13:58;4.60;;;4.05;;
49372;SDS011;44113;38.408;-122.974;2022-08-07T06:16:26;6.30;;;5.00;;
49372;SDS011;44113;38.408;-122.974;2022-08-07T06:18:58;6.80;;;6.00;;
49372;SDS011;44113;38.408;-122.974;2022-08-07T06:21:26;5.80;;;5.20;;
49372;SDS011;44113;38.408;-122.974;2022-08-07T06:23:53;6.47;;;4.60;;
49372;SDS011;44113;38.408;-122.974;2022-08-07T06:26:21;12.07;;;5.80;;
49372;SDS011;44113;38.408;-122.974;2022-08-07T06:28:51;6.18;;;5.57;;
49372;SDS011;44113;38.408;-122.974;2022-08-07T06:31:22;8.48;;;4.28;;
49372;SDS011;44113;38.408;-122.974;2022-08-07T06:33:49;9.63;;;4.10;;
49372;SDS011;44113;38.408;-122.974;2022-08-07T06:36:16;6.97;;;3.90;;
49372;SDS011;44113;38.408;-122.974;2022-08-07T06:38:43;4.80;;;3.72;;
49372;SDS011;44113;38.408;-122.974;2022-08-07T06:41:11;6.20;;;4.38;;
49372;SDS011;44113;38.408;-122.974;2022-08-07T06:43:45;4.28;;;3.60;;
49372;SDS011;44113;38.408;-122.974;2022-08-07T06:46:13;4.63;;;3.88;;
49372;SDS011;44113;38.408;-122.974;2022-08-07T06:48:40;5.60;;;4.03;;
49372;SDS011;44113;38.408;-122.974;2022-08-07T06:51:08;4.43;;;3.50;;
49372;SDS011;44113;38.408;-122.974;2022-08-07T06:53:38;4.10;;;3.47;;
49372;SDS011;44113;38.408;-122.974;2022-08-07T06:56:06;3.60;;;3.03;;
49372;SDS011;44113;38.408;-122.974;2022-08-07T06:58:35;4.82;;;4.13;;
49372;SDS011;44113;38.408;-122.974;2022-08-07T07:01:07;5.15;;;3.63;;
49372;SDS011;44113;38.408;-122.974;2022-08-07T07:03:37;5.43;;;2.70;;
49372;SDS011;44113;38.408;-122.974;2022-08-07T07:06:06;4.53;;;3.90;;
49372;SDS011;44113;38.408;-122.974;2022-08-07T07:08:34;4.55;;;4.15;;
49372;SDS011;44113;38.408;-122.974;2022-08-07T07:11:02;5.00;;;2.72;;
49372;SDS011;44113;38.408;-122.974;2022-08-07T07:13:32;3.55;;;2.47;;
49372;SDS011;44113;38.408;-122.974;2022-08-07T07:16:03;3.83;;;2.85;;
49372;SDS011;44113;38.408;-122.974;2022-08-07T07:18:50;5.15;;;2.55;;
49372;SDS011;44113;38.408;-122.974;2022-08-07T07:21:24;6.00;;;2.80;;
49372;SDS011;44113;38.408;-122.974;2022-08-07T07:23:54;6.40;;;3.10;;
49372;SDS011;44113;38.408;-122.974;2022-08-07T07:26:22;4.13;;;3.42;;
49372;SDS011;44113;38.408;-122.974;2022-08-07T07:28:56;4.22;;;3.60;;
49372;SDS011;44113;38.408;-122.974;2022-08-07T07:31:46;5.88;;;2.90;;
49372;SDS011;44113;38.408;-122.974;2022-08-07T07:34:20;4.97;;;2.38;;
49372;SDS011;44113;38.408;-122.974;2022-08-07T07:36:49;3.65;;;2.38;;
49372;SDS011;44113;38.408;-122.974;2022-08-07T07:39:18;5.43;;;2.67;;
49372;SDS011;44113;38.408;-122.974;2022-08-07T07:41:48;6.50;;;2.35;;
49372;SDS011;44113;38.408;-122.974;2022-08-07T07:44:17;4.35;;;3.28;;
49372;SDS011;44113;38.408;-122.974;2022-08-07T07:46:46;4.22;;;2.60;;
49372;SDS011;44113;38.408;-122.974;2022-08-07T07:49:14;4.10;;;2.78;;
49372;SDS011;44113;38.408;-122.974;2022-08-07T07:51:45;5.75;;;2.40;;
49372;SDS011;44113;38.408;-122.974;2022-08-07T07:54:13;3.50;;;2.58;;
49372;SDS011;44113;38.408;-122.974;2022-08-07T07:56:41;3.60;;;2.42;;
49372;SDS011;44113;38.408;-122.974;2022-08-07T07:59:09;2.22;;;1.83;;
49372;SDS011;44113;38.408;-122.974;2022-08-07T08:01:38;4.60;;;1.92;;
49372;SDS011;44113;38.408;-122.974;2022-08-07T08:04:10;4.60;;;2.13;;
49372;SDS011;44113;38.408;-122.974;2022-08-07T08:06:43;4.68;;;1.55;;
49372;SDS011;44113;38.408;-122.974;2022-08-07T08:09:10;5.03;;;2.55;;
49372;SDS011;44113;38.408;-122.974;2022-08-07T08:11:39;2.90;;;1.98;;
49372;SDS011;44113;38.408;-122.974;2022-08-07T08:14:07;2.03;;;1.42;;
49372;SDS011;44113;38.408;-122.974;2022-08-07T08:16:36;4.25;;;1.50;;
49372;SDS011;44113;38.408;-122.974;2022-08-07T08:19:07;2.65;;;1.88;;
49372;SDS011;44113;38.408;-122.974;2022-08-07T08:21:38;4.32;;;1.73;;
49372;SDS011;44113;38.408;-122.974;2022-08-07T08:24:26;2.10;;;1.90;;
49372;SDS011;44113;38.408;-122.974;2022-08-07T08:27:15;3.53;;;1.95;;
49372;SDS011;44113;38.408;-122.974;2022-08-07T08:29:47;6.85;;;2.85;;
49372;SDS011;44113;38.408;-122.974;2022-08-07T08:32:20;2.30;;;1.40;;
49372;SDS011;44113;38.408;-122.974;2022-08-07T08:34:49;3.00;;;1.50;;
49372;SDS011;44113;38.408;-122.974;2022-08-07T08:37:18;6.82;;;2.30;;
49372;SDS011;44113;38.408;-122.974;2022-08-07T08:39:45;3.08;;;1.52;;
49372;SDS011;44113;38.408;-122.974;2022-08-07T08:42:28;1.90;;;1.38;;
49372;SDS011;44113;38.408;-122.974;2022-08-07T08:45:05;2.80;;;1.98;;
49372;SDS011;44113;38.408;-122.974;2022-08-07T08:47:55;3.25;;;1.70;;
49372;SDS011;44113;38.408;-122.974;2022-08-07T08:50:34;4.05;;;1.77;;
49372;SDS011;44113;38.408;-122.974;2022-08-07T08:53:18;3.00;;;1.33;;
49372;SDS011;44113;38.408;-122.974;2022-08-07T08:56:03;2.58;;;1.20;;
49372;SDS011;44113;38.408;-122.974;2022-08-07T09:01:13;3.38;;;1.83;;
49372;SDS011;44113;38.408;-122.974;2022-08-07T09:20:56;3.38;;;1.15;;
49372;SDS011;44113;38.408;-122.974;2022-08-07T09:26:45;1.88;;;1.00;;
49372;SDS011;44113;38.408;-122.974;2022-08-07T09:48:42;1.80;;;1.00;;
49372;SDS011;44113;38.408;-122.974;2022-08-07T10:00:18;2.97;;;0.77;;
49372;SDS011;44113;38.408;-122.974;2022-08-07T10:13:43;2.17;;;0.82;;
49372;SDS011;44113;38.408;-122.974;2022-08-07T10:30:05;2.03;;;0.82;;
49372;SDS011;44113;38.408;-122.974;2022-08-07T10:41:02;2.67;;;1.10;;
49372;SDS011;44113;38.408;-122.974;2022-08-07T10:44:01;3.45;;;0.63;;
49372;SDS011;44113;38.408;-122.974;2022-08-07T10:46:34;1.10;;;0.60;;
49372;SDS011;44113;38.408;-122.974;2022-08-07T10:49:22;1.60;;;0.60;;
49372;SDS011;44113;38.408;-122.974;2022-08-07T10:54:41;1.77;;;0.95;;
49372;SDS011;44113;38.408;-122.974;2022-08-07T11:02:45;3.30;;;0.70;;
49372;SDS011;44113;38.408;-122.974;2022-08-07T11:08:35;2.60;;;1.02;;
49372;SDS011;44113;38.408;-122.974;2022-08-07T11:11:14;5.53;;;0.80;;
49372;SDS011;44113;38.408;-122.974;2022-08-07T11:14:16;2.03;;;0.60;;
49372;SDS011;44113;38.408;-122.974;2022-08-07T11:16:48;1.85;;;0.60;;
49372;SDS011;44113;38.408;-122.974;2022-08-07T11:19:58;1.30;;;0.60;;
49372;SDS011;44113;38.408;-122.974;2022-08-07T11:22:58;1.90;;;0.70;;
49372;SDS011;44113;38.408;-122.974;2022-08-07T11:25:39;2.67;;;0.43;;
49372;SDS011;44113;38.408;-122.974;2022-08-07T11:28:47;2.10;;;0.60;;
49372;SDS011;44113;38.408;-122.974;2022-08-07T11:31:38;2.08;;;0.88;;
49372;SDS011;44113;38.408;-122.974;2022-08-07T11:34:28;2.33;;;0.75;;
49372;SDS011;44113;38.408;-122.974;2022-08-07T11:37:05;1.95;;;0.98;;
49372;SDS011;44113;38.408;-122.974;2022-08-07T11:40:17;1.67;;;0.50;;
49372;SDS011;44113;38.408;-122.974;2022-08-07T11:54:17;1.70;;;0.45;;
49372;SDS011;44113;38.408;-122.974;2022-08-07T12:02:01;0.95;;;0.40;;
49372;SDS011;44113;38.408;-122.974;2022-08-07T12:04:55;1.80;;;0.40;;
49372;SDS011;44113;38.408;-122.974;2022-08-07T12:07:56;1.70;;;0.57;;
49372;SDS011;44113;38.408;-122.974;2022-08-07T12:10:37;2.13;;;0.60;;
49372;SDS011;44113;38.408;-122.974;2022-08-07T12:13:25;1.10;;;0.50;;
49372;SDS011;44113;38.408;-122.974;2022-08-07T12:16:01;1.20;;;0.40;;
49372;SDS011;44113;38.408;-122.974;2022-08-07T12:18:48;2.70;;;0.55;;
49372;SDS011;44113;38.408;-122.974;2022-08-07T12:22:03;0.90;;;0.40;;
49372;SDS011;44113;38.408;-122.974;2022-08-07T12:27:45;0.80;;;0.35;;
49372;SDS011;44113;38.408;-122.974;2022-08-07T12:30:17;1.10;;;0.40;;
49372;SDS011;44113;38.408;-122.974;2022-08-07T12:35:21;2.65;;;0.47;;
49372;SDS011;44113;38.408;-122.974;2022-08-07T12:37:50;1.33;;;0.98;;
49372;SDS011;44113;38.408;-122.974;2022-08-07T12:40:20;1.85;;;0.50;;
49372;SDS011;44113;38.408;-122.974;2022-08-07T12:42:53;1.77;;;0.40;;
49372;SDS011;44113;38.408;-122.974;2022-08-07T12:45:28;1.83;;;0.85;;
49372;SDS011;44113;38.408;-122.974;2022-08-07T12:48:12;1.63;;;0.40;;
49372;SDS011;44113;38.408;-122.974;2022-08-07T12:50:51;4.82;;;0.60;;
49372;SDS011;44113;38.408;-122.974;2022-08-07T12:58:41;1.60;;;0.30;;
49372;SDS011;44113;38.408;-122.974;2022-08-07T13:09:21;0.85;;;0.32;;
49372;SDS011;44113;38.408;-122.974;2022-08-07T13:14:36;1.17;;;0.40;;
49372;SDS011;44113;38.408;-122.974;2022-08-07T13:25:18;1.55;;;0.40;;
49372;SDS011;44113;38.408;-122.974;2022-08-07T13:28:02;1.02;;;0.40;;
49372;SDS011;44113;38.408;-122.974;2022-08-07T13:30:34;1.02;;;0.43;;
49372;SDS011;44113;38.408;-122.974;2022-08-07T13:33:14;1.55;;;0.40;;
49372;SDS011;44113;38.408;-122.974;2022-08-07T13:36:01;1.90;;;0.63;;
49372;SDS011;44113;38.408;-122.974;2022-08-07T13:44:10;1.00;;;0.30;;
49372;SDS011;44113;38.408;-122.974;2022-08-07T13:46:38;0.90;;;0.30;;
49372;SDS011;44113;38.408;-122.974;2022-08-07T13:49:10;3.63;;;0.37;;
49372;SDS011;44113;38.408;-122.974;2022-08-07T13:51:40;1.02;;;0.30;;
49372;SDS011;44113;38.408;-122.974;2022-08-07T13:54:10;1.10;;;0.50;;
49372;SDS011;44113;38.408;-122.974;2022-08-07T13:56:38;1.30;;;0.30;;
49372;SDS011;44113;38.408;-122.974;2022-08-07T13:59:08;1.13;;;0.30;;
49372;SDS011;44113;38.408;-122.974;2022-08-07T14:01:50;0.82;;;0.30;;
49372;SDS011;44113;38.408;-122.974;2022-08-07T14:04:17;1.02;;;0.40;;
49372;SDS011;44113;38.408;-122.974;2022-08-07T14:06:48;0.85;;;0.40;;
49372;SDS011;44113;38.408;-122.974;2022-08-07T14:09:27;1.40;;;0.38;;
49372;SDS011;44113;38.408;-122.974;2022-08-07T14:11:57;0.90;;;0.30;;
49372;SDS011;44113;38.408;-122.974;2022-08-07T14:14:28;1.13;;;0.30;;
49372;SDS011;44113;38.408;-122.974;2022-08-07T14:17:04;0.93;;;0.30;;
49372;SDS011;44113;38.408;-122.974;2022-08-07T14:22:02;1.20;;;0.50;;
49372;SDS011;44113;38.408;-122.974;2022-08-07T14:24:34;0.80;;;0.30;;
49372;SDS011;44113;38.408;-122.974;2022-08-07T14:27:09;1.17;;;0.30;;
49372;SDS011;44113;38.408;-122.974;2022-08-07T14:29:41;1.35;;;0.40;;
49372;SDS011;44113;38.408;-122.974;2022-08-07T14:32:13;1.10;;;0.30;;
49372;SDS011;44113;38.408;-122.974;2022-08-07T14:34:43;2.22;;;0.30;;
49372;SDS011;44113;38.408;-122.974;2022-08-07T14:37:15;1.48;;;0.30;;
49372;SDS011;44113;38.408;-122.974;2022-08-07T14:39:44;0.90;;;0.30;;
49372;SDS011;44113;38.408;-122.974;2022-08-07T14:42:13;0.93;;;0.40;;
49372;SDS011;44113;38.408;-122.974;2022-08-07T14:44:46;0.80;;;0.40;;
49372;SDS011;44113;38.408;-122.974;2022-08-07T14:47:17;0.50;;;0.30;;
49372;SDS011;44113;38.408;-122.974;2022-08-07T14:49:45;0.70;;;0.30;;
49372;SDS011;44113;38.408;-122.974;2022-08-07T14:52:13;0.45;;;0.20;;
49372;SDS011;44113;38.408;-122.974;2022-08-07T14:54:40;1.25;;;0.30;;
49372;SDS011;44113;38.408;-122.974;2022-08-07T14:57:11;1.02;;;0.40;;
49372;SDS011;44113;38.408;-122.974;2022-08-07T14:59:40;0.95;;;0.28;;
49372;SDS011;44113;38.408;-122.974;2022-08-07T15:02:10;0.90;;;0.30;;
49372;SDS011;44113;38.408;-122.974;2022-08-07T15:04:42;1.07;;;0.30;;
49372;SDS011;44113;38.408;-122.974;2022-08-07T15:07:15;0.80;;;0.30;;
49372;SDS011;44113;38.408;-122.974;2022-08-07T15:09:46;0.70;;;0.30;;
49372;SDS011;44113;38.408;-122.974;2022-08-07T15:12:15;0.60;;;0.30;;
49372;SDS011;44113;38.408;-122.974;2022-08-07T15:14:54;0.98;;;0.30;;
49372;SDS011;44113;38.408;-122.974;2022-08-07T15:17:29;0.70;;;0.30;;
49372;SDS011;44113;38.408;-122.974;2022-08-07T15:22:31;3.00;;;0.20;;
49372;SDS011;44113;38.408;-122.974;2022-08-07T15:25:10;3.40;;;0.88;;
49372;SDS011;44113;38.408;-122.974;2022-08-07T15:27:40;0.80;;;0.30;;
49372;SDS011;44113;38.408;-122.974;2022-08-07T15:30:10;1.95;;;0.30;;
49372;SDS011;44113;38.408;-122.974;2022-08-07T15:32:40;1.10;;;0.40;;
49372;SDS011;44113;38.408;-122.974;2022-08-07T15:35:14;0.50;;;0.20;;
49372;SDS011;44113;38.408;-122.974;2022-08-07T15:37:42;1.48;;;0.30;;
49372;SDS011;44113;38.408;-122.974;2022-08-07T15:40:18;1.27;;;0.40;;
49372;SDS011;44113;38.408;-122.974;2022-08-07T15:42:48;1.73;;;0.30;;
49372;SDS011;44113;38.408;-122.974;2022-08-07T15:45:37;0.70;;;0.30;;
49372;SDS011;44113;38.408;-122.974;2022-08-07T15:48:07;0.70;;;0.30;;
49372;SDS011;44113;38.408;-122.974;2022-08-07T15:50:47;0.50;;;0.30;;
49372;SDS011;44113;38.408;-122.974;2022-08-07T15:53:22;0.60;;;0.30;;
49372;SDS011;44113;38.408;-122.974;2022-08-07T15:58:20;0.60;;;0.30;;
49372;SDS011;44113;38.408;-122.974;2022-08-07T16:00:56;1.05;;;0.30;;
49372;SDS011;44113;38.408;-122.974;2022-08-07T16:03:24;0.98;;;0.30;;
49372;SDS011;44113;38.408;-122.974;2022-08-07T16:05:55;2.42;;;0.22;;
49372;SDS011;44113;38.408;-122.974;2022-08-07T16:08:23;0.93;;;0.30;;
49372;SDS011;44113;38.408;-122.974;2022-08-07T16:10:55;1.35;;;0.20;;
49372;SDS011;44113;38.408;-122.974;2022-08-07T16:30:01;0.65;;;0.20;;
49372;SDS011;44113;38.408;-122.974;2022-08-07T16:32:39;1.70;;;0.30;;
49372;SDS011;44113;38.408;-122.974;2022-08-07T16:40:33;0.70;;;0.55;;
49372;SDS011;44113;38.408;-122.974;2022-08-07T16:54:45;1.02;;;0.30;;
49372;SDS011;44113;38.408;-122.974;2022-08-07T17:05:38;0.60;;;0.25;;
49372;SDS011;44113;38.408;-122.974;2022-08-07T17:10:57;1.25;;;0.20;;
49372;SDS011;44113;38.408;-122.974;2022-08-07T17:13:36;1.60;;;0.25;;
49372;SDS011;44113;38.408;-122.974;2022-08-07T17:18:43;0.70;;;0.20;;
49372;SDS011;44113;38.408;-122.974;2022-08-07T17:21:33;0.85;;;0.40;;
49372;SDS011;44113;38.408;-122.974;2022-08-07T17:24:21;0.80;;;0.20;;
49372;SDS011;44113;38.408;-122.974;2022-08-07T17:38:31;0.65;;;0.20;;
49372;SDS011;44113;38.408;-122.974;2022-08-07T17:41:00;3.22;;;0.30;;
49372;SDS011;44113;38.408;-122.974;2022-08-07T17:43:42;0.75;;;0.30;;
49372;SDS011;44113;38.408;-122.974;2022-08-07T17:46:19;1.75;;;0.70;;
49372;SDS011;44113;38.408;-122.974;2022-08-07T17:48:58;1.77;;;0.52;;
49372;SDS011;44113;38.408;-122.974;2022-08-07T17:54:47;6.00;;;1.85;;
49372;SDS011;44113;38.408;-122.974;2022-08-07T17:59:58;3.63;;;0.63;;
49372;SDS011;44113;38.408;-122.974;2022-08-07T18:07:59;2.00;;;0.80;;
49372;SDS011;44113;38.408;-122.974;2022-08-07T18:18:27;1.17;;;0.50;;
49372;SDS011;44113;38.408;-122.974;2022-08-07T18:34:17;2.92;;;0.32;;
49372;SDS011;44113;38.408;-122.974;2022-08-07T18:48:59;3.30;;;0.40;;
49372;SDS011;44113;38.408;-122.974;2022-08-07T18:51:50;2.92;;;0.68;;
49372;SDS011;44113;38.408;-122.974;2022-08-07T18:54:44;0.85;;;0.30;;
49372;SDS011;44113;38.408;-122.974;2022-08-07T18:57:27;5.97;;;0.40;;
49372;SDS011;44113;38.408;-122.974;2022-08-07T19:00:12;4.40;;;0.30;;
49372;SDS011;44113;38.408;-122.974;2022-08-07T19:02:42;1.00;;;0.30;;
49372;SDS011;44113;38.408;-122.974;2022-08-07T19:08:05;1.13;;;0.73;;
49372;SDS011;44113;38.408;-122.974;2022-08-07T19:10:57;3.67;;;0.30;;